Matsuyama Maru No.5 — JL6592 — position and weather

sailwx.info

Track history (hours):
 
Tides and Currents Weather Stations Pressure Air Temp Water Temp Dewpoint Dewpoint Depression Visibility Wind Speed Wind Dir Waves Ship Positions

Matsuyama Maru No.5

Last reported at 2017-Oct-18 09:39 UTC. Time now 2017-Nov-24 00:24 UTC.
Position N 34°50' E 139°48'.
Warning: this ship's position is 36 days out of date.

Length 105 m; draft 6.2 m.

Type: Tanker. MMSI: 431501735.

Date/timePositionNaut miles runAvg speedWind from/ knotsBaromVisibWave heightAir tempDewpointWater temp
2017-Oct-18 09:39N 34°50' E 139°48'213.3
2017-Oct-18 09:29N 34°52' E 139°46'612.6
2017-Oct-18 09:01N 34°56' E 139°41'713.3
2017-Oct-18 08:30N 35°03' E 139°43'713.4
2017-Oct-18 08:00N 35°09' E 139°45'713.4
2017-Oct-18 07:30N 35°16' E 139°46'611.6
2017-Oct-18 07:00N 35°21' E 139°42'613.0
2017-Oct-18 06:30N 35°27' E 139°45'4 8.4
2017-Oct-18 06:00N 35°31' E 139°46'0 0.1
2017-Oct-18 00:15N 35°32' E 139°46'0 0.2
2017-Oct-18 00:00N 35°32' E 139°46'2 4.0
2017-Oct-17 23:30N 35°30' E 139°44'4 8.2
2017-Oct-17 23:00N 35°26' E 139°43'2 5.0
2017-Oct-17 22:30N 35°24' E 139°45'0 0.0
2017-Oct-17 21:58N 35°24' E 139°45'0 0.0
2017-Oct-17 21:28N 35°24' E 139°45'0 0.0
2017-Oct-17 20:58N 35°24' E 139°45'0 0.0
2017-Oct-17 20:28N 35°24' E 139°45'0 0.0
2017-Oct-17 19:58N 35°24' E 139°45'0 0.0
2017-Oct-17 19:28N 35°24' E 139°45'0 0.0
2017-Oct-17 18:58N 35°24' E 139°45'0 0.0
2017-Oct-17 18:30N 35°24' E 139°45'4 8.9
2017-Oct-17 18:00N 35°19' E 139°44'612.6
2017-Oct-17 17:30N 35°13' E 139°47'713.6
2017-Oct-17 17:01N 35°07' E 139°45'713.6
2017-Oct-17 16:30N 35°00' E 139°43'610.9
2017-Oct-17 16:00N 34°55' E 139°44'  
2017-Oct-10 07:29N 35°34' E 140°01'0 0.1
2017-Oct-10 04:06N 35°33' E 140°01'0 0.1
2017-Oct-10 03:15N 35°33' E 140°01'0 0.0
2017-Oct-10 02:54N 35°33' E 140°01'0 0.0
2017-Oct-10 02:30N 35°33' E 140°01'0 0.0
2017-Oct-10 02:00N 35°33' E 140°01'0 0.0
2017-Oct-10 01:30N 35°33' E 140°01'0 0.0
2017-Oct-10 01:00N 35°33' E 140°01'0 0.0
2017-Oct-09 22:33N 35°33' E 140°01'0 0.0
2017-Oct-09 22:21N 35°33' E 140°01'12 0.6
2017-Oct-09 03:19N 35°26' E 139°49'513.4
2017-Oct-09 02:58N 35°23' E 139°45'611.9
2017-Oct-09 02:30N 35°17' E 139°45'612.3
2017-Oct-09 02:00N 35°11' E 139°47'714.4
2017-Oct-09 01:30N 35°04' E 139°45'713.3
2017-Oct-09 01:00N 34°58' E 139°43'612.5
2017-Oct-09 00:30N 34°52' E 139°47'  
Track history (hours):
 
Tides and Currents Weather Stations Pressure Air Temp Water Temp Dewpoint Dewpoint Depression Visibility Wind Speed Wind Dir Waves Ship Positions

Matsuyama Maru No.5

Last reported at 2017-Oct-18 09:39 UTC. Time now 2017-Nov-24 00:24 UTC.
Position N 34°50' E 139°48'.
Warning: this ship's position is 36 days out of date.

Length 105 m; draft 6.2 m.

Type: Tanker. MMSI: 431501735.

Date/timePositionNaut miles runAvg speedWind from/ knotsBaromVisibWave heightAir tempDewpointWater temp
2017-Oct-18 09:39N 34°50' E 139°48'213.3
2017-Oct-18 09:29N 34°52' E 139°46'612.6
2017-Oct-18 09:01N 34°56' E 139°41'713.3
2017-Oct-18 08:30N 35°03' E 139°43'713.4
2017-Oct-18 08:00N 35°09' E 139°45'713.4
2017-Oct-18 07:30N 35°16' E 139°46'611.6
2017-Oct-18 07:00N 35°21' E 139°42'613.0
2017-Oct-18 06:30N 35°27' E 139°45'4 8.4
2017-Oct-18 06:00N 35°31' E 139°46'0 0.1
2017-Oct-18 00:15N 35°32' E 139°46'0 0.2
2017-Oct-18 00:00N 35°32' E 139°46'2 4.0
2017-Oct-17 23:30N 35°30' E 139°44'4 8.2
2017-Oct-17 23:00N 35°26' E 139°43'2 5.0
2017-Oct-17 22:30N 35°24' E 139°45'0 0.0
2017-Oct-17 21:58N 35°24' E 139°45'0 0.0
2017-Oct-17 21:28N 35°24' E 139°45'0 0.0
2017-Oct-17 20:58N 35°24' E 139°45'0 0.0
2017-Oct-17 20:28N 35°24' E 139°45'0 0.0
2017-Oct-17 19:58N 35°24' E 139°45'0 0.0
2017-Oct-17 19:28N 35°24' E 139°45'0 0.0
2017-Oct-17 18:58N 35°24' E 139°45'0 0.0
2017-Oct-17 18:30N 35°24' E 139°45'4 8.9
2017-Oct-17 18:00N 35°19' E 139°44'612.6
2017-Oct-17 17:30N 35°13' E 139°47'713.6
2017-Oct-17 17:01N 35°07' E 139°45'713.6
2017-Oct-17 16:30N 35°00' E 139°43'610.9
2017-Oct-17 16:00N 34°55' E 139°44'  
2017-Oct-10 07:29N 35°34' E 140°01'0 0.1
2017-Oct-10 04:06N 35°33' E 140°01'0 0.1
2017-Oct-10 03:15N 35°33' E 140°01'0 0.0
2017-Oct-10 02:54N 35°33' E 140°01'0 0.0
2017-Oct-10 02:30N 35°33' E 140°01'0 0.0
2017-Oct-10 02:00N 35°33' E 140°01'0 0.0
2017-Oct-10 01:30N 35°33' E 140°01'0 0.0
2017-Oct-10 01:00N 35°33' E 140°01'0 0.0
2017-Oct-09 22:33N 35°33' E 140°01'0 0.0
2017-Oct-09 22:21N 35°33' E 140°01'12 0.6
2017-Oct-09 03:19N 35°26' E 139°49'513.4
2017-Oct-09 02:58N 35°23' E 139°45'611.9
2017-Oct-09 02:30N 35°17' E 139°45'612.3
2017-Oct-09 02:00N 35°11' E 139°47'714.4
2017-Oct-09 01:30N 35°04' E 139°45'713.3
2017-Oct-09 01:00N 34°58' E 139°43'612.5
2017-Oct-09 00:30N 34°52' E 139°47'  

Dump ship's entire track history